Flight Track Log - Related Links

Times and Time Zones

All times are in EDT time to prevent confusion due to time zone crossing. See the SWA1323 flight status page for this flight to view local times or setup timezone preferences in your user account.

Time Position Orientation Groundspeed Altitude Reporting Facility
EDT Latitude Longitude Course Direction KTS MPH feet Rate Location/Type
Sat 09:51:45 PM 39.5000 -119.7667 349° North 155 178 4,700  Level Northern Cal TRACON
Sat 09:52:45 PM 39.5667 -119.7833 349° North 219 252 7,400 3,287 Climbing Northern Cal TRACON
Sat 09:54:22 PM 39.6083 -119.7100 54° Northeast 226 260 13,300 3,114 Climbing Oakland Center
Sat 09:55:23 PM 39.5400 -119.6958 171° South 262 302 15,600 2,754 Climbing Oakland Center
Sat 09:56:24 PM 39.4472 -119.6936 179° South 311 358 18,900 3,492 Climbing Oakland Center
Sat 09:57:25 PM 39.3242 -119.6897 179° South 354 407 22,700 3,295 Climbing Oakland Center
Sat 09:58:26 PM 39.2161 -119.6875 179° South 377 434 25,600 2,754 Climbing Oakland Center
Sat 09:59:27 PM 39.1031 -119.6833 178° South 397 457 28,300 2,361 Climbing Oakland Center
Sat 10:00:28 PM 38.9864 -119.6808 179° South 415 478 30,400 2,083 Climbing Oakland Center
Sat 10:01:28 PM 38.8656 -119.6786 179° South 429 494 32,500 2,231 Climbing Oakland Center
Sat 10:02:29 PM 38.7425 -119.6758 179° South 439 505 34,900 2,311 Climbing Oakland Center
Sat 10:03:30 PM 38.6233 -119.6722 179° South 435 501 37,200 1,902 Climbing Oakland Center
Sat 10:04:32 PM 38.5050 -119.6694 179° South 429 494 38,800 878 Climbing Oakland Center
Sat 10:05:33 PM 38.3808 -119.6669 179° South 425 489 39,000 98 Climbing Oakland Center
Sat 10:06:34 PM 38.2661 -119.6647 179° South 414 476 39,000  Level Oakland Center
Sat 10:07:35 PM 38.1500 -119.6622 179° South 415 478 39,000  Level Oakland Center
Sat 10:08:36 PM 38.0358 -119.6592 179° South 410 472 39,000  Level Oakland Center
Sat 10:09:37 PM 37.9189 -119.6569 179° South 417 480 39,000  Level Oakland Center
Sat 10:10:38 PM 37.8006 -119.6539 179° South 421 484 39,000  Level Oakland Center
Sat 10:11:39 PM 37.6842 -119.6514 179° South 417 480 39,000  Level Oakland Center
Sat 10:12:40 PM 37.5689 -119.6478 179° South 413 475 39,000  Level Oakland Center
Sat 10:13:41 PM 37.4292 -119.6458 179° South 415 478 39,000  Level Oakland Center
Sat 10:14:42 PM 37.3333 -119.6436 179° South 412 474 39,000  Level Oakland Center
Sat 10:15:43 PM 37.2183 -119.6408 179° South 413 475 39,000  Level Oakland Center
Sat 10:16:44 PM 37.0789 -119.6378 179° South 416 479 39,000  Level Oakland Center
Sat 10:17:45 PM 36.9628 -119.6356 179° South 418 481 39,000  Level Oakland Center
Sat 10:18:46 PM 36.8458 -119.6325 179° South 419 482 39,000  Level Oakland Center
Sat 10:19:47 PM 36.7289 -119.6322 180° South 420 483 39,000  Level Oakland Center
Sat 10:20:48 PM 36.6119 -119.6292 179° South 420 483 39,000  Level Oakland Center
Sat 10:21:49 PM 36.4944 -119.6258 179° South 421 484 39,000  Level Oakland Center
Sat 10:22:50 PM 36.3778 -119.6244 179° South 419 482 39,000  Level Oakland Center
Sat 10:23:51 PM 36.2614 -119.6214 179° South 417 480 39,000  Level Oakland Center
Sat 10:24:52 PM 36.1461 -119.6181 179° South 416 479 39,000  Level Oakland Center
Sat 10:25:53 PM 36.0314 -119.6161 179° South 412 474 39,000  Level Oakland Center
Sat 10:26:54 PM 35.9156 -119.6164 180° South 414 476 39,000  Level Oakland Center
Sat 10:27:55 PM 35.8014 -119.6217 182° South 410 472 39,000  Level Oakland Center
Sat 10:28:56 PM 35.6872 -119.6247 181° South 409 471 39,000  Level Oakland Center
Sat 10:29:47 PM 35.5756 -119.6300 182° South 405 466 39,000  Level Los Angeles Center
Sat 10:30:48 PM 35.4636 -119.6344 182° South 403 464 39,000  Level Los Angeles Center
Sat 10:31:50 PM 35.3497 -119.6383 182° South 404 465 39,000  Level Los Angeles Center
Sat 10:32:51 PM 35.2356 -119.6214 173° South 419 482 39,000 -683 Level Los Angeles Center
Sat 10:33:53 PM 35.1344 -119.5369 146° Southeast 440 506 37,600 -2,049 Descending Los Angeles Center
Sat 10:34:54 PM 35.0336 -119.4511 145° Southeast 440 506 34,800 -2,927 Descending Los Angeles Center
Sat 10:35:56 PM 34.9328 -119.3644 145° Southeast 441 507 31,600 -2,878 Descending Los Angeles Center
Sat 10:36:57 PM 34.8306 -119.2803 146° Southeast 443 510 28,900 -2,780 Descending Los Angeles Center
Sat 10:37:59 PM 34.7144 -119.1828 145° Southeast 427 491 25,900 -2,439 Descending Los Angeles Center
Sat 10:39:00 PM 34.6342 -119.1147 145° Southeast 411 473 23,900 -2,146 Descending Los Angeles Center
Sat 10:40:02 PM 34.5428 -119.0367 145° Southeast 403 464 21,500 -2,488 Descending Los Angeles Center
Sat 10:41:03 PM 34.4367 -118.9489 146° Southeast 384 442 18,800 -2,390 Descending Los Angeles Center
Sat 10:42:05 PM 34.3525 -118.8817 147° Southeast 363 418 16,600 -2,244 Descending Los Angeles Center
Sat 10:43:06 PM 34.2583 -118.8444 162° South 357 411 14,200 -2,244 Descending Los Angeles Center
Sat 10:44:08 PM 34.1683 -118.8125 164° South 341 392 12,000 -1,756 Descending Los Angeles Center
Sat 10:45:09 PM 34.0753 -118.7783 163° South 320 368 10,600 -976 Descending Los Angeles Center
Sat 10:46:11 PM 34.0333 -118.7028 124° Southeast 288 331 10,000 -488 Descending Los Angeles Center
Sat 10:47:12 PM 34.0256 -118.6228 97° East 244 281 9,600 -689 Descending Los Angeles Center
Sat 10:48:13 PM 34.0178 -118.5400 96° East 233 268 8,600 -1,024 Descending Los Angeles Center
Sat 10:49:15 PM 34.0103 -118.4636 97° East 229 264 7,500 -1,220 Descending Los Angeles Center
Sat 10:50:16 PM 34.0192 -118.3894 82° East 219 252 6,100 -1,561 Descending Los Angeles Center
Sat 10:51:18 PM 34.0258 -118.3175 84° East 217 250 4,300 -1,756 Descending Los Angeles Center
Sat 10:52:19 PM 33.9883 -118.2864 145° Southeast 208 239 2,500 -1,426 Descending Los Angeles Center
Sat 10:53:20 PM 33.9606 -118.3308 233° Southwest 185 213 1,400 -927 Descending Los Angeles Center
Sat 10:54:22 PM 33.9556 -118.3758 262° West 156 180 600 -634 Descending Los Angeles Center
Sat 10:55:23 PM 33.9506 -118.4192 262° West 139 160 100 -492 Descending Los Angeles Center
Sat 10:57:00 PM 33.9425 -118.4081 231° Southwest  Level Estimated

Login

Don't have an account? Register now (free) for customized features, flight alerts, and more!